Rock Falls, Wisconsin
Current Conditions -  °F | °C
As of 5:56 AM on Monday 22 Dec 2014 (Local Time) from KEAU Reporting Station
Haze Haze  
Wind Chill: 26°   Ceiling: 600
Heat Index: 35°   Visibility: 4mi
Dew Point: 33°   Wind: 14mph
Humidity: 92%   Direction: 150°SSE
Pressure: 29.75"   Gusts: NA
Location:  44.72°N, 91.69°W
Report Text: KEAU 221156Z 15012KT 4SM BR OVC006 02/01 A2975 RMK AO2 SLP083 60000 70004 T00170006 10028 20017 56006
Loading
Personal Weather Stations






























Interactive Weather Map New forecast layout! Learn more

10-Day Weather Forecast

Advertisements
Track Severe Weather on mobile